Nearby METAR Reports

 

KRDU - Raleigh/Durham, North Carolina, USA
Distance from station: NNW 20mi, 33km
Updated: Mon, 26-Aug-2019 3:51am EDT
Few Clouds
Few Clouds
 Wind from NNE
Wind: NNE 5 mph , 7 km/h
Temperature: 64°F , 18°C
Dew Point: 61°F , 16°C
Humidity: 88%
Barometer: 30.10 inHg , 1019.3 hPa
Clouds: Few Clouds
Visibility: 10 miles , 16 km
Cloud details: Few Clouds 7000 ft
Few Clouds 25000 ft
2019/08/26 07:51 KRDU 260751Z 03004KT 10SM FEW070 FEW250 18/16 A3010 RMK AO2 SLP190 T01780161
KJNX - Smithfield Johns, North Carolina, USA
Distance from station: ESE 17mi, 28km
Updated: Mon, 26-Aug-2019 4:35am EDT
Clear
Clear
 Wind from calm
Wind: Calm
Temperature: 63°F , 17°C
Dew Point: 63°F , 17°C
Humidity: 100%
Barometer: 30.08 inHg , 1018.6 hPa
Clouds: Clear
Visibility: 10 miles , 16 km
2019/08/26 08:35 KJNX 260835Z AUTO 00000KT 10SM CLR 17/17 A3008 RMK AO2
 
KLHZ - Louisburg/Frankl, North Carolina, USA
Distance from station: NE 33mi, 54km
Updated: Mon, 26-Aug-2019 4:20am EDT
Mist, Partly cloudy
Mist, Partly cloudy
 Wind from N
Wind: N 5 mph , 7 km/h
Temperature: 61°F , 16°C
Dew Point: 61°F , 16°C
Humidity: 100%
Barometer: 30.12 inHg , 1020 hPa
Summary: Mist
Clouds: Partly cloudy
Visibility: 5 miles , 8 km
Cloud details: Partly cloudy 7000 ft
2019/08/26 08:20 KLHZ 260820Z AUTO 35004KT 5SM BR SCT070 16/16 A3012 RMK AO2
KPOB - Pope Afb, North Carolina, USA
Distance from station: SSW 37mi, 59km
Updated: Mon, 26-Aug-2019 3:56am EDT
Overcast
Overcast
 Wind from NE
Wind: NE 7 mph , 11 km/h
Temperature: 68°F , 20°C
Dew Point: 63°F , 17°C
Humidity: 83%
Barometer: 30.08 inHg , 1018.6 hPa
Clouds: Overcast
Visibility: 10 miles , 16 km
Cloud details: Overcast 6000 ft
2019/08/26 07:56 KPOB 260756Z AUTO 05006KT 10SM OVC060 20/17 A3008 RMK AO2 SLP187 T01990171 $
 
KFBG - Fort Bragg/Simmo, North Carolina, USA
Distance from station: SSW 37mi, 60km
Updated: Mon, 26-Aug-2019 3:56am EDT
Clear
Clear
 Wind from NNE
Wind: NNE 5 mph , 7 km/h
Temperature: 68°F , 20°C
Dew Point: 64°F , 18°C
Humidity: 88%
Barometer: 30.06 inHg , 1017.9 hPa
Clouds: Clear
Visibility: 10 miles , 16 km
2019/08/26 07:56 KFBG 260756Z AUTO 02004KT 10SM CLR 20/18 A3006 RMK AO2 SLP181 T01950178 $
KSCR - Siler City, North Carolina, USA
Distance from station: W 47mi, 75km
Updated: Mon, 26-Aug-2019 4:35am EDT
Overcast
Overcast
 Wind from calm
Wind: Calm
Temperature: 64°F , 18°C
Dew Point: 61°F , 16°C
Humidity: 88%
Barometer: 30.11 inHg , 1019.6 hPa
Clouds: Overcast
Visibility: 10 miles , 16 km
Cloud details: Overcast 6500 ft
2019/08/26 08:35 KSCR 260835Z AUTO 00000KT 10SM OVC065 18/16 A3011 RMK AO2 T01750163
 
KTDF - Roxboro Person, North Carolina, USA
Distance from station: NNW 49mi, 79km
Updated: Mon, 26-Aug-2019 4:35am EDT
Mostly cloudy
Mostly cloudy
 Wind from calm
Wind: Calm
Temperature: 61°F , 16°C
Dew Point: 59°F , 15°C
Humidity: 94%
Barometer: 30.14 inHg , 1020.7 hPa
Clouds: Mostly cloudy
Visibility: 10 miles , 16 km
Cloud details: Mostly cloudy 7000 ft
2019/08/26 08:35 KTDF 260835Z AUTO 00000KT 10SM BKN070 16/15 A3014 RMK AO2
KSOP - Southern Pines, North Carolina, USA
Distance from station: SW 50mi, 80km
Updated: Mon, 26-Aug-2019 3:56am EDT
Overcast
Overcast
 Wind from NE
Wind: NE 7 mph , 11 km/h
Temperature: 66°F , 19°C
Dew Point: 63°F , 17°C
Humidity: 88%
Barometer: 30.09 inHg , 1019 hPa
Clouds: Overcast
Visibility: 10 miles , 16 km
Cloud details: Overcast 5000 ft
2019/08/26 07:56 KSOP 260756Z AUTO 05006KT 10SM OVC050 19/17 A3009 RMK AO2 SLP193 T01940172
 
KHNZ - Henderson/Oxford, North Carolina, USA
Distance from station: N 52mi, 84km
Updated: Mon, 26-Aug-2019 4:35am EDT
Clear
Clear
 Wind from calm
Wind: Calm
Temperature: 59°F , 15°C
Dew Point: 59°F , 15°C
Humidity: 100%
Barometer: 30.12 inHg , 1020 hPa
Clouds: Clear
Visibility: 10 miles , 16 km
2019/08/26 08:35 KHNZ 260835Z AUTO 00000KT 10SM CLR 15/15 A3012 RMK AO2 T01510145
KBUY - Burlington, North Carolina, USA
Distance from station: NW 54mi, 86km
Updated: Mon, 26-Aug-2019 3:54am EDT
Overcast
Overcast
 Wind from NE
Wind: NE 5 mph , 7 km/h
Temperature: 66°F , 19°C
Dew Point: 61°F , 16°C
Humidity: 83%
Barometer: 30.12 inHg , 1020 hPa
Clouds: Overcast
Visibility: 10 miles , 16 km
Cloud details: Overcast 6000 ft
2019/08/26 07:54 KBUY 260754Z AUTO 04004KT 10SM OVC060 19/16 A3012 RMK AO2 SLP193 T01890161
 
KTNB - Boone Watauga Ct, North Carolina, USA
Distance from station: SE 2mi, 3km
Updated: Mon, 26-Aug-2019 4:35am EDT
Overcast
Overcast
 Wind from calm
Wind: Calm
Temperature: 57°F , 14°C
Dew Point: 54°F , 12°C
Humidity: 88%
Barometer: 30.20 inHg , 1022.7 hPa
Clouds: Overcast
Visibility: 10 miles , 16 km
Cloud details: Overcast 2900 ft
2019/08/26 08:35 KTNB 260835Z AUTO 00000KT 10SM OVC029 14/12 A3020 RMK AO2 T01380121
KGEV - Jefferson, North Carolina, USA
Distance from station: NE 21mi, 33km
Updated: Mon, 26-Aug-2019 4:35am EDT
Overcast
Overcast
 Wind from calm
Wind: Calm
Temperature: 57°F , 14°C
Dew Point: 54°F , 12°C
Humidity: 88%
Barometer: 30.19 inHg , 1022.4 hPa
Clouds: Overcast
Visibility: 10 miles , 16 km
Cloud details: Overcast 3000 ft
2019/08/26 08:35 KGEV 260835Z AUTO 00000KT 10SM OVC030 14/12 A3019 RMK AO2 T01360115
 
KFQD - Rutherfordton, North Carolina, USA
Distance from station: SSW 57mi, 92km
Updated: Mon, 26-Aug-2019 4:35am EDT
Partly cloudy
Partly cloudy
 Wind from calm
Wind: Calm
Temperature: 64°F , 18°C
Dew Point: 64°F , 18°C
Humidity: 100%
Barometer: 30.12 inHg , 1020 hPa
Clouds: Partly cloudy
Visibility: 10 miles , 16 km
Cloud details: Partly cloudy 5000 ft
2019/08/26 08:35 KFQD 260835Z AUTO 00000KT 10SM SCT050 18/18 A3012 RMK AO2
KAVL - Asheville, North Carolina, USA
Distance from station: SW 72mi, 117km
Updated: Mon, 26-Aug-2019 3:54am EDT
Overcast
Overcast
 Wind from calm
Wind: Calm
Temperature: 64°F , 18°C
Dew Point: 61°F , 16°C
Humidity: 88%
Barometer: 30.15 inHg , 1021 hPa
Clouds: Overcast
Visibility: 10 miles , 16 km
Cloud details: Overcast 3700 ft
2019/08/26 07:54 KAVL 260754Z AUTO 00000KT 10SM OVC037 18/16 A3015 RMK AO2 SLP189 T01780156 $